createdAt,value
2022-11-25T00:02:54.225Z,100.00
2022-11-25T00:08:00.299Z,100.00
2022-11-25T00:13:01.992Z,100.00
2022-11-25T00:18:04.623Z,100.00
2022-11-25T00:23:11.116Z,100.00
2022-11-25T00:28:12.786Z,100.00
2022-11-25T00:33:14.689Z,100.00
2022-11-25T00:38:18.925Z,100.00
2022-11-25T00:43:39.020Z,100.00
2022-11-25T00:48:42.934Z,100.00
2022-11-25T00:53:47.638Z,100.00
2022-11-25T00:58:59.078Z,100.00
2022-11-25T01:04:03.843Z,100.00
2022-11-25T01:09:12.235Z,100.00
2022-11-25T01:14:16.200Z,100.00
2022-11-25T01:19:19.036Z,100.00
2022-11-25T01:24:20.726Z,100.00
2022-11-25T01:29:23.318Z,100.00
2022-11-25T01:34:34.657Z,100.00
2022-11-25T01:39:39.782Z,100.00
2022-11-25T01:44:44.008Z,100.00
2022-11-25T01:49:55.101Z,100.00
2022-11-25T01:54:59.703Z,100.00
2022-11-25T02:00:04.084Z,100.00
2022-11-25T02:05:13.842Z,100.00
2022-11-25T02:10:29.985Z,100.00
2022-11-25T02:15:39.376Z,100.00
2022-11-25T02:20:43.457Z,100.00
2022-11-25T02:25:48.229Z,100.00
2022-11-25T02:30:55.043Z,100.00
2022-11-25T02:35:58.958Z,100.00
2022-11-25T02:41:04.855Z,100.00
2022-11-25T02:46:16.179Z,100.00
2022-11-25T02:51:24.455Z,100.00
2022-11-25T02:56:30.065Z,100.00
2022-11-25T03:01:33.274Z,100.00
2022-11-25T03:06:35.058Z,100.00
2022-11-25T03:11:55.318Z,100.00
2022-11-25T03:16:57.234Z,100.00
2022-11-25T03:22:03.384Z,100.00
2022-11-25T03:27:07.383Z,100.00
2022-11-25T03:32:11.504Z,100.00
2022-11-25T03:37:14.729Z,100.00
2022-11-25T03:42:19.379Z,100.00
2022-11-25T03:47:24.470Z,100.00
2022-11-25T03:52:28.880Z,100.00
2022-11-25T03:57:31.895Z,100.00
2022-11-25T04:02:36.305Z,100.00
2022-11-25T04:07:44.888Z,100.00
2022-11-25T04:12:49.406Z,100.00
2022-11-25T04:18:00.056Z,100.00
2022-11-25T04:23:06.194Z,100.00
2022-11-25T04:28:11.020Z,100.00
2022-11-25T04:33:12.914Z,100.00
2022-11-25T04:38:14.921Z,100.00
2022-11-25T04:43:17.392Z,100.00
2022-11-25T04:48:29.918Z,100.00
2022-11-25T04:53:34.553Z,100.00
2022-11-25T04:58:54.942Z,100.00
2022-11-25T05:03:59.036Z,100.00
2022-11-25T05:09:04.691Z,100.00
2022-11-25T05:14:09.523Z,100.00
2022-11-25T05:19:19.023Z,100.00
2022-11-25T05:24:24.935Z,100.00
2022-11-25T05:29:32.493Z,100.00
2022-11-25T05:34:37.256Z,100.00
2022-11-25T05:39:39.463Z,100.00
2022-11-25T05:45:01.935Z,100.00
2022-11-25T05:50:05.533Z,100.00
2022-11-25T05:55:08.202Z,100.00
2022-11-25T06:00:10.558Z,100.00
2022-11-25T06:05:20.777Z,100.00
2022-11-25T06:10:22.581Z,100.00
2022-11-25T06:15:25.435Z,100.00
2022-11-25T06:20:31.459Z,100.00
2022-11-25T06:25:36.488Z,100.00
2022-11-25T06:30:38.458Z,100.00
2022-11-25T06:36:17.181Z,100.00
2022-11-25T06:41:23.548Z,100.00
2022-11-25T06:46:25.721Z,100.00
2022-11-25T06:51:29.798Z,100.00
2022-11-25T06:56:33.809Z,100.00
2022-11-25T07:01:38.387Z,100.00
2022-11-25T07:06:40.178Z,100.00
2022-11-25T07:11:44.340Z,100.00
2022-11-25T07:16:48.304Z,100.00
2022-11-25T07:21:49.998Z,100.00
2022-11-25T07:26:53.882Z,100.00
2022-11-25T07:32:03.328Z,100.00
2022-11-25T07:37:09.643Z,100.00
2022-11-25T07:42:13.941Z,100.00
2022-11-25T07:47:18.674Z,100.00
2022-11-25T07:52:22.661Z,100.00
2022-11-25T07:57:26.420Z,100.00
2022-11-25T08:02:31.501Z,100.00
2022-11-25T08:07:36.469Z,100.00
2022-11-25T08:12:41.190Z,100.00
2022-11-25T08:17:42.912Z,100.00
2022-11-25T08:22:44.654Z,100.00
2022-11-25T08:27:48.475Z,100.00
2022-11-25T08:33:01.245Z,100.00
2022-11-25T08:38:08.937Z,100.00
2022-11-25T08:43:16.222Z,100.00
2022-11-25T08:48:21.943Z,100.00
2022-11-25T08:53:24.764Z,100.00
2022-11-25T08:58:31.379Z,100.00
2022-11-25T09:03:43.216Z,100.00
2022-11-25T09:08:48.898Z,100.00
2022-11-25T09:13:52.415Z,100.00
2022-11-25T09:19:01.105Z,100.00
2022-11-25T09:24:05.803Z,100.00
2022-11-25T09:29:10.755Z,100.00
2022-11-25T09:34:12.615Z,100.00
2022-11-25T09:39:16.234Z,100.00
2022-11-25T09:44:50.269Z,100.00
2022-11-25T09:50:04.582Z,100.00
2022-11-25T09:55:06.633Z,100.00
2022-11-25T10:00:14.179Z,100.00
2022-11-25T10:05:20.601Z,100.00
2022-11-25T10:10:28.768Z,100.00
2022-11-25T10:15:35.893Z,100.00
2022-11-25T10:20:39.374Z,100.00
2022-11-25T10:25:51.831Z,100.00
2022-11-25T10:31:18.634Z,100.00
2022-11-25T10:36:33.745Z,100.00
2022-11-25T10:41:47.943Z,100.00
2022-11-25T10:47:21.231Z,100.00
2022-11-25T10:52:29.605Z,100.00
2022-11-25T10:57:35.700Z,100.00
2022-11-25T11:02:39.819Z,100.00
2022-11-25T11:07:46.783Z,100.00
2022-11-25T11:13:03.084Z,100.00
2022-11-25T11:18:24.855Z,100.00
2022-11-25T11:23:31.236Z,100.00
2022-11-25T11:28:37.211Z,100.00
2022-11-25T11:33:57.633Z,100.00
2022-11-25T11:39:21.615Z,100.00
2022-11-25T11:45:02.881Z,100.00
2022-11-25T11:50:26.628Z,100.00
2022-11-25T11:55:43.317Z,100.00
2022-11-25T12:01:29.436Z,100.00
2022-11-25T12:06:33.824Z,100.00
2022-11-25T12:11:40.641Z,100.00
2022-11-25T12:16:51.656Z,100.00
2022-11-25T12:22:02.649Z,100.00
2022-11-25T12:27:14.452Z,100.00
2022-11-25T12:32:28.104Z,100.00
2022-11-25T12:37:58.811Z,100.00
2022-11-25T12:43:37.410Z,100.00
2022-11-25T12:48:41.999Z,100.00
2022-11-25T12:54:00.250Z,100.00
2022-11-25T12:59:31.645Z,100.00
2022-11-25T13:10:47.729Z,100.00
2022-11-25T13:10:55.759Z,100.00
2022-11-25T13:15:52.786Z,100.00
2022-11-25T13:20:56.038Z,100.00
2022-11-25T13:26:28.456Z,98.82
2022-11-25T13:32:00.787Z,98.23
2022-11-25T13:37:41.510Z,96.91
2022-11-25T13:42:48.288Z,97.92
2022-11-25T13:47:51.480Z,97.81
2022-11-25T13:53:31.948Z,99.73
2022-11-25T13:58:48.187Z,99.94
2022-11-25T14:03:55.747Z,99.13
2022-11-25T14:09:20.253Z,100.00
2022-11-25T14:14:59.804Z,100.00
2022-11-25T14:20:34.591Z,100.00
2022-11-25T14:26:11.740Z,100.00
2022-11-25T14:31:36.182Z,100.00
2022-11-25T14:36:55.239Z,100.00
2022-11-25T14:42:04.171Z,100.00
2022-11-25T14:47:11.430Z,100.00
2022-11-25T14:52:27.540Z,100.00
2022-11-25T14:57:34.788Z,100.00
2022-11-25T15:02:41.051Z,100.00
2022-11-25T15:07:56.954Z,100.00
2022-11-25T15:13:13.800Z,100.00
2022-11-25T15:18:26.220Z,100.00
2022-11-25T15:23:31.973Z,100.00
2022-11-25T15:28:40.326Z,100.00
2022-11-25T15:33:42.923Z,100.00
2022-11-25T15:38:48.383Z,100.00
2022-11-25T15:43:56.570Z,100.00
2022-11-25T15:49:01.484Z,100.00
2022-11-25T15:54:17.856Z,100.00
2022-11-25T15:59:39.234Z,100.00
2022-11-25T16:04:40.963Z,100.00
2022-11-25T16:09:51.082Z,100.00
2022-11-25T16:14:52.877Z,100.00
2022-11-25T16:19:56.992Z,100.00
2022-11-25T16:25:02.931Z,100.00
2022-11-25T16:30:05.506Z,100.00
2022-11-25T16:35:15.673Z,100.00
2022-11-25T16:40:20.586Z,100.00
2022-11-25T16:45:24.734Z,100.00
2022-11-25T16:50:28.880Z,100.00
2022-11-25T16:55:32.954Z,100.00
2022-11-25T17:00:34.955Z,100.00
2022-11-25T17:05:36.788Z,100.00
2022-11-25T17:10:41.633Z,100.00
2022-11-25T17:15:46.087Z,100.00
2022-11-25T17:20:50.474Z,100.00
2022-11-25T17:25:55.687Z,100.00
2022-11-25T17:31:03.264Z,100.00
2022-11-25T17:36:05.400Z,100.00
2022-11-25T17:41:13.406Z,100.00
2022-11-25T17:46:19.930Z,100.00
2022-11-25T17:51:21.777Z,100.00
2022-11-25T17:56:28.578Z,100.00
2022-11-25T18:01:31.102Z,100.00
2022-11-25T18:06:32.944Z,100.00
2022-11-25T18:11:34.676Z,100.00
2022-11-25T18:16:42.601Z,100.00
2022-11-25T18:21:46.911Z,100.00
2022-11-25T18:26:50.007Z,100.00
2022-11-25T18:31:56.522Z,100.00
2022-11-25T18:37:01.010Z,100.00
2022-11-25T18:42:07.940Z,100.00
2022-11-25T18:47:12.950Z,100.00
2022-11-25T18:52:20.615Z,100.00
2022-11-25T18:57:25.482Z,100.00
2022-11-25T19:02:28.651Z,100.00
2022-11-25T19:07:31.633Z,100.00
2022-11-25T19:12:36.856Z,100.00
2022-11-25T19:17:38.886Z,100.00
2022-11-25T19:22:40.610Z,100.00
2022-11-25T19:28:02.566Z,100.00
2022-11-25T19:33:04.369Z,100.00
2022-11-25T19:38:21.483Z,100.00
2022-11-25T19:43:27.145Z,100.00
2022-11-25T19:48:36.337Z,100.00
2022-11-25T19:53:40.549Z,100.00
2022-11-25T19:58:42.338Z,100.00
2022-11-25T20:03:50.092Z,100.00
2022-11-25T20:08:57.339Z,100.00
2022-11-25T20:14:01.527Z,100.00
2022-11-25T20:19:07.036Z,100.00
2022-11-25T20:24:15.737Z,100.00
2022-11-25T20:29:25.872Z,100.00
2022-11-25T20:34:40.422Z,100.00
2022-11-25T20:39:44.959Z,100.00
2022-11-25T20:44:47.065Z,100.00
2022-11-25T20:49:48.850Z,100.00
2022-11-25T20:54:55.202Z,100.00
2022-11-25T21:00:01.861Z,100.00
2022-11-25T21:05:11.601Z,100.00
2022-11-25T21:10:25.061Z,100.00
2022-11-25T21:15:29.524Z,100.00
2022-11-25T21:20:32.037Z,100.00
2022-11-25T21:25:35.255Z,100.00
2022-11-25T21:30:39.847Z,100.00
2022-11-25T21:35:44.608Z,100.00
2022-11-25T21:40:49.361Z,100.00
2022-11-25T21:46:01.504Z,100.00
2022-11-25T21:51:11.585Z,100.00
2022-11-25T21:56:30.293Z,100.00
2022-11-25T22:01:40.263Z,100.00
2022-11-25T22:06:46.985Z,100.00
2022-11-25T22:11:53.101Z,100.00
2022-11-25T22:16:57.147Z,100.00
2022-11-25T22:22:01.597Z,100.00
2022-11-25T22:27:07.293Z,100.00
2022-11-25T22:32:16.070Z,100.00
2022-11-25T22:37:22.353Z,100.00
2022-11-25T22:42:29.615Z,100.00
2022-11-25T22:47:48.686Z,100.00
2022-11-25T22:52:51.041Z,100.00
2022-11-25T22:57:59.116Z,100.00
2022-11-25T23:03:02.404Z,100.00
2022-11-25T23:08:13.744Z,100.00
2022-11-25T23:13:17.240Z,100.00
2022-11-25T23:18:34.082Z,100.00
2022-11-25T23:23:42.004Z,100.00
2022-11-25T23:28:48.342Z,100.00
2022-11-25T23:33:53.351Z,100.00
2022-11-25T23:39:00.213Z,100.00
2022-11-25T23:44:15.304Z,100.00
2022-11-25T23:49:44.478Z,100.00
2022-11-25T23:54:52.292Z,100.00
2022-11-25T23:59:56.145Z,100.00
